Time;durP1;ratioP1;P1;durP2;ratioP2;P2;SDS_P1;SDS_P2;PMS_P1;PMS_P2;Temp;Humidity;BMP_temperature;BMP_pressure;BME280_temperature;BME280_humidity;BME280_pressure;Samples;Min_cycle;Max_cycle;Signal;HPM_P1;HPM_P2
2021/01/19 00:01:22;;;;;;;19.53;12.13;;;;;;;;;;5067862;28;20473;-70
2021/01/19 00:03:49;;;;;;;19.37;12.13;;;;;;;;;;5066886;28;20472;-69
2021/01/19 00:06:17;;;;;;;18.80;11.23;;;;;;;;;;5068488;28;20449;-69
2021/01/19 00:08:43;;;;;;;18.37;12.63;;;;;;;;;;5069240;28;20452;-69
2021/01/19 00:11:10;;;;;;;25.17;12.77;;;;;;;;;;5067176;28;20495;-69
2021/01/19 00:13:36;;;;;;;24.27;12.93;;;;;;;;;;5062003;28;20453;-69
2021/01/19 00:16:03;;;;;;;22.40;12.53;;;;;;;;;;5060399;28;20833;-69
2021/01/19 00:18:30;;;;;;;23.53;13.50;;;;;;;;;;5067238;28;20452;-68
2021/01/19 00:20:57;;;;;;;27.37;12.90;;;;;;;;;;5066404;28;20480;-69
2021/01/19 00:23:24;;;;;;;24.30;14.23;;;;;;;;;;5063528;28;20461;-69
2021/01/19 00:25:50;;;;;;;21.13;12.33;;;;;;;;;;5068262;28;20519;-69
2021/01/19 00:28:17;;;;;;;25.50;14.10;;;;;;;;;;5069187;28;20484;-68
2021/01/19 00:30:44;;;;;;;28.67;16.73;;;;;;;;;;5066009;28;20483;-69
2021/01/19 00:33:12;;;;;;;28.57;16.33;;;;;;;;;;5066845;28;20514;-67
2021/01/19 00:35:40;;;;;;;31.53;16.00;;;;;;;;;;5068455;28;20464;-68
2021/01/19 00:38:08;;;;;;;25.27;13.93;;;;;;;;;;5065298;28;20460;-69
2021/01/19 00:40:34;;;;;;;21.93;15.33;;;;;;;;;;5057570;28;20489;-69
2021/01/19 00:43:01;;;;;;;23.37;14.50;;;;;;;;;;5067416;28;20511;-68
2021/01/19 00:45:28;;;;;;;29.40;14.00;;;;;;;;;;5066177;28;20449;-68
2021/01/19 00:47:54;;;;;;;19.77;11.47;;;;;;;;;;5065441;28;20558;-68
2021/01/19 00:50:21;;;;;;;34.67;15.60;;;;;;;;;;5063574;28;20487;-69
2021/01/19 00:52:48;;;;;;;29.80;15.70;;;;;;;;;;5063044;28;20457;-68
2021/01/19 00:55:16;;;;;;;34.33;16.60;;;;;;;;;;5059354;28;20461;-68
2021/01/19 00:57:45;;;;;;;22.83;15.13;;;;;;;;;;5065635;28;20449;-69
2021/01/19 01:00:12;;;;;;;22.03;14.33;;;;;;;;;;5064487;28;20469;-69
2021/01/19 01:02:39;;;;;;;29.50;15.87;;;;;;;;;;5064868;28;20461;-68
2021/01/19 01:05:06;;;;;;;30.23;15.03;;;;;;;;;;5068452;28;20605;-68
2021/01/19 01:07:34;;;;;;;28.67;16.80;;;;;;;;;;5068580;28;20472;-69
2021/01/19 01:10:01;;;;;;;22.77;15.20;;;;;;;;;;5066878;28;20491;-69
2021/01/19 01:12:28;;;;;;;30.80;15.07;;;;;;;;;;5065960;28;20464;-69
2021/01/19 01:14:55;;;;;;;25.10;15.50;;;;;;;;;;5062042;28;20441;-69
2021/01/19 01:17:21;;;;;;;25.33;16.13;;;;;;;;;;5066687;28;21353;-69
2021/01/19 01:19:48;;;;;;;26.30;15.47;;;;;;;;;;5067465;28;20472;-69
2021/01/19 01:22:15;;;;;;;33.60;17.07;;;;;;;;;;5063979;28;20462;-69
2021/01/19 01:24:41;;;;;;;29.07;16.90;;;;;;;;;;5066916;28;20472;-68
2021/01/19 01:27:08;;;;;;;27.87;14.97;;;;;;;;;;5063820;28;20478;-69
2021/01/19 01:29:35;;;;;;;28.33;16.30;;;;;;;;;;5067625;28;20491;-69
2021/01/19 01:32:02;;;;;;;36.27;17.63;;;;;;;;;;5063970;28;20450;-69
2021/01/19 01:34:28;;;;;;;25.87;15.90;;;;;;;;;;5061759;28;20875;-69
2021/01/19 01:36:55;;;;;;;29.87;17.40;;;;;;;;;;5063310;28;20441;-69
2021/01/19 01:39:22;;;;;;;28.17;15.20;;;;;;;;;;5068102;28;20453;-68
2021/01/19 01:41:48;;;;;;;24.70;13.87;;;;;;;;;;5066377;28;20549;-69
2021/01/19 01:44:15;;;;;;;33.03;14.03;;;;;;;;;;5066147;28;20464;-69
2021/01/19 01:46:43;;;;;;;28.23;14.47;;;;;;;;;;5059938;28;21012;-68
2021/01/19 01:49:10;;;;;;;27.03;15.30;;;;;;;;;;5063924;28;20468;-68
2021/01/19 01:51:37;;;;;;;35.17;15.00;;;;;;;;;;5058148;28;20462;-69
2021/01/19 01:54:03;;;;;;;28.27;15.47;;;;;;;;;;5056798;28;20462;-69
2021/01/19 01:56:30;;;;;;;23.90;12.17;;;;;;;;;;5065229;28;20828;-69
2021/01/19 01:58:57;;;;;;;27.93;15.90;;;;;;;;;;5064103;28;20453;-69
2021/01/19 02:01:24;;;;;;;27.27;16.70;;;;;;;;;;5066319;28;20477;-68
2021/01/19 02:03:51;;;;;;;27.90;15.40;;;;;;;;;;5062543;28;20468;-69
2021/01/19 02:06:18;;;;;;;25.63;13.77;;;;;;;;;;5065321;28;20444;-69
2021/01/19 02:08:54;;;;;;;32.90;16.97;;;;;;;;;;5068872;28;20449;-68
2021/01/19 02:11:24;;;;;;;31.17;15.43;;;;;;;;;;5062258;28;20534;-69
2021/01/19 02:13:58;;;;;;;38.23;17.00;;;;;;;;;;5063022;28;20457;-68
2021/01/19 02:16:34;;;;;;;28.43;14.60;;;;;;;;;;5068003;28;20444;-69
2021/01/19 02:19:10;;;;;;;22.73;13.27;;;;;;;;;;5063207;28;20503;-69
2021/01/19 02:21:54;;;;;;;28.33;14.60;;;;;;;;;;5066252;28;20495;-69
2021/01/19 02:24:27;;;;;;;28.43;14.60;;;;;;;;;;5048039;28;20464;-68
2021/01/19 02:27:02;;;;;;;26.53;14.70;;;;;;;;;;5058416;28;20542;-68
2021/01/19 02:29:53;;;;;;;25.73;12.37;;;;;;;;;;5066468;28;20505;-68
2021/01/19 02:32:28;;;;;;;28.93;15.87;;;;;;;;;;5048506;28;20479;-69
2021/01/19 02:35:01;;;;;;;25.97;13.17;;;;;;;;;;5065773;28;20449;-69
2021/01/19 02:37:29;;;;;;;27.53;14.50;;;;;;;;;;5065874;28;20459;-68
2021/01/19 02:39:58;;;;;;;29.60;14.87;;;;;;;;;;5069108;28;20826;-68
2021/01/19 02:42:29;;;;;;;37.47;17.47;;;;;;;;;;5067884;28;20866;-68
2021/01/19 02:44:57;;;;;;;38.60;17.60;;;;;;;;;;5066040;28;20445;-68
2021/01/19 02:47:23;;;;;;;27.83;14.93;;;;;;;;;;5070543;28;21024;-69
2021/01/19 02:49:51;;;;;;;36.03;16.10;;;;;;;;;;5069381;28;20471;-70
2021/01/19 02:52:18;;;;;;;33.43;15.57;;;;;;;;;;5066860;28;20446;-69
2021/01/19 02:54:45;;;;;;;30.23;16.27;;;;;;;;;;5067650;28;20921;-68
2021/01/19 02:57:22;;;;;;;29.60;14.70;;;;;;;;;;5065916;28;20518;-69
2021/01/19 02:59:51;;;;;;;29.60;14.63;;;;;;;;;;5067125;28;20848;-69
2021/01/19 03:02:20;;;;;;;33.10;18.70;;;;;;;;;;5067319;28;20453;-69
2021/01/19 03:04:48;;;;;;;31.83;18.20;;;;;;;;;;5063817;28;20465;-69
2021/01/19 03:07:17;;;;;;;35.27;15.90;;;;;;;;;;5073477;28;20550;-69
2021/01/19 03:09:44;;;;;;;38.40;16.27;;;;;;;;;;5072666;28;20472;-69
2021/01/19 03:12:14;;;;;;;29.23;15.37;;;;;;;;;;5065457;28;20465;-68
2021/01/19 03:14:41;;;;;;;26.60;15.00;;;;;;;;;;5070624;28;20453;-69
2021/01/19 03:17:08;;;;;;;26.80;14.90;;;;;;;;;;5072004;28;20452;-69
2021/01/19 03:19:35;;;;;;;34.57;18.20;;;;;;;;;;5074433;28;20980;-68
2021/01/19 03:22:02;;;;;;;30.53;16.70;;;;;;;;;;5070082;28;20442;-69
2021/01/19 03:24:29;;;;;;;32.87;16.60;;;;;;;;;;5069417;28;20455;-69
2021/01/19 03:26:56;;;;;;;42.37;19.63;;;;;;;;;;5068529;28;20480;-68
2021/01/19 03:29:22;;;;;;;30.10;16.77;;;;;;;;;;5071007;28;20456;-69
2021/01/19 03:31:49;;;;;;;34.07;16.07;;;;;;;;;;5070739;28;20835;-69
2021/01/19 03:34:16;;;;;;;30.23;15.73;;;;;;;;;;5064906;28;20465;-68
2021/01/19 03:36:42;;;;;;;30.73;17.60;;;;;;;;;;5071973;28;20473;-68
2021/01/19 03:39:09;;;;;;;24.47;13.00;;;;;;;;;;5058750;28;20473;-69
2021/01/19 03:41:37;;;;;;;35.00;14.77;;;;;;;;;;5071242;28;20469;-68
2021/01/19 03:44:04;;;;;;;32.77;16.60;;;;;;;;;;5059408;28;20566;-69
2021/01/19 03:46:31;;;;;;;25.40;15.37;;;;;;;;;;5071801;28;20472;-68
2021/01/19 03:48:57;;;;;;;28.70;15.40;;;;;;;;;;5072259;28;20449;-69
2021/01/19 03:51:24;;;;;;;28.20;14.90;;;;;;;;;;5071850;28;20541;-69
2021/01/19 03:53:50;;;;;;;28.30;16.07;;;;;;;;;;5066950;28;20461;-69
2021/01/19 03:56:17;;;;;;;27.47;16.00;;;;;;;;;;5072898;28;20445;-68
2021/01/19 03:58:45;;;;;;;29.70;16.03;;;;;;;;;;5071841;28;20453;-69
2021/01/19 04:01:11;;;;;;;23.40;15.97;;;;;;;;;;5061383;28;21065;-68
2021/01/19 04:03:38;;;;;;;27.70;15.27;;;;;;;;;;5066996;28;20469;-68
2021/01/19 04:06:06;;;;;;;32.10;16.33;;;;;;;;;;5067067;28;20442;-68
2021/01/19 04:08:32;;;;;;;32.97;16.57;;;;;;;;;;5068915;28;20558;-68
2021/01/19 04:10:59;;;;;;;32.77;16.63;;;;;;;;;;5067188;28;20480;-69
2021/01/19 04:13:26;;;;;;;27.30;15.07;;;;;;;;;;5063418;28;20483;-69
2021/01/19 04:15:53;;;;;;;29.00;16.80;;;;;;;;;;5064081;28;20473;-69
2021/01/19 04:18:20;;;;;;;31.07;16.83;;;;;;;;;;5060063;28;20444;-69
2021/01/19 04:20:47;;;;;;;27.43;14.73;;;;;;;;;;5066613;28;20468;-68
2021/01/19 04:23:14;;;;;;;31.10;16.57;;;;;;;;;;5066320;28;20457;-68
2021/01/19 04:25:41;;;;;;;25.90;14.70;;;;;;;;;;5068237;28;20489;-68
2021/01/19 04:28:07;;;;;;;27.80;15.70;;;;;;;;;;5064815;28;21011;-69
2021/01/19 04:30:34;;;;;;;34.30;17.40;;;;;;;;;;5067737;28;20472;-69
2021/01/19 04:33:02;;;;;;;27.70;15.67;;;;;;;;;;5066277;28;20461;-68
2021/01/19 04:35:28;;;;;;;30.43;18.03;;;;;;;;;;5070589;28;20437;-68
2021/01/19 04:37:55;;;;;;;30.93;15.33;;;;;;;;;;5063545;28;21018;-68
2021/01/19 04:40:22;;;;;;;30.80;16.33;;;;;;;;;;5067291;28;20481;-69
2021/01/19 04:42:48;;;;;;;35.73;16.10;;;;;;;;;;5069114;28;20465;-69
2021/01/19 04:45:15;;;;;;;27.10;14.20;;;;;;;;;;5067480;28;20441;-68
2021/01/19 04:47:42;;;;;;;31.33;15.47;;;;;;;;;;5068127;28;20861;-68
2021/01/19 04:50:10;;;;;;;32.63;16.23;;;;;;;;;;5062652;28;20485;-68
2021/01/19 04:52:40;;;;;;;30.40;15.77;;;;;;;;;;5070395;28;20461;-68
2021/01/19 04:55:07;;;;;;;30.50;17.53;;;;;;;;;;5067423;28;20563;-68
2021/01/19 04:57:35;;;;;;;30.23;15.93;;;;;;;;;;5068730;28;20520;-69
2021/01/19 05:00:04;;;;;;;32.10;16.17;;;;;;;;;;5063197;28;20530;-69
2021/01/19 05:03:04;;;;;;;27.23;16.57;;;;;;;;;;5062339;28;20452;-68
2021/01/19 05:05:58;;;;;;;29.93;16.10;;;;;;;;;;5068234;28;20517;-69
2021/01/19 05:08:26;;;;;;;31.87;16.43;;;;;;;;;;5064635;28;20518;-68
2021/01/19 05:10:57;;;;;;;26.70;14.90;;;;;;;;;;5068186;28;20484;-68
2021/01/19 05:13:38;;;;;;;27.03;14.80;;;;;;;;;;5066167;28;20835;-68
2021/01/19 05:16:05;;;;;;;25.70;13.47;;;;;;;;;;5069576;28;20475;-69
2021/01/19 05:18:31;;;;;;;33.87;17.30;;;;;;;;;;5062719;28;20444;-69
2021/01/19 05:21:01;;;;;;;29.13;15.67;;;;;;;;;;5065638;28;20818;-68
2021/01/19 05:23:28;;;;;;;30.03;14.67;;;;;;;;;;5060019;28;20529;-69
2021/01/19 05:25:55;;;;;;;26.87;14.10;;;;;;;;;;5067105;28;20465;-69
2021/01/19 05:28:29;;;;;;;24.70;14.90;;;;;;;;;;5069206;28;20496;-69
2021/01/19 05:30:55;;;;;;;27.37;14.23;;;;;;;;;;5066481;28;20571;-69
2021/01/19 05:33:22;;;;;;;25.83;14.83;;;;;;;;;;5068263;28;20961;-69
2021/01/19 05:35:49;;;;;;;25.70;14.93;;;;;;;;;;5058882;28;20449;-69
2021/01/19 05:38:16;;;;;;;28.70;15.47;;;;;;;;;;5064179;28;20442;-69
2021/01/19 05:40:43;;;;;;;29.03;14.90;;;;;;;;;;5063398;28;20520;-68
2021/01/19 05:43:11;;;;;;;34.73;17.03;;;;;;;;;;5056208;28;20476;-69
2021/01/19 05:45:37;;;;;;;36.97;18.20;;;;;;;;;;5055767;28;20798;-69
2021/01/19 05:48:25;;;;;;;23.27;13.80;;;;;;;;;;5057131;28;20746;-68
2021/01/19 05:50:51;;;;;;;24.60;14.50;;;;;;;;;;5051945;28;20550;-69
2021/01/19 05:53:19;;;;;;;30.17;15.20;;;;;;;;;;5059605;28;20467;-69
2021/01/19 05:55:46;;;;;;;34.53;15.60;;;;;;;;;;5064766;28;20482;-68
2021/01/19 05:58:13;;;;;;;26.37;13.57;;;;;;;;;;5063681;28;20982;-68
2021/01/19 06:00:41;;;;;;;21.67;14.07;;;;;;;;;;5065162;28;20471;-68
2021/01/19 06:03:15;;;;;;;27.13;16.43;;;;;;;;;;5062867;28;20463;-68
2021/01/19 06:05:41;;;;;;;26.97;16.47;;;;;;;;;;5065387;28;20457;-69
2021/01/19 06:08:09;;;;;;;35.53;17.27;;;;;;;;;;5066347;28;20472;-68
2021/01/19 06:10:37;;;;;;;22.57;14.37;;;;;;;;;;5062804;28;21001;-68
2021/01/19 06:13:04;;;;;;;29.40;14.73;;;;;;;;;;5067614;28;20977;-68
2021/01/19 06:15:31;;;;;;;41.17;18.83;;;;;;;;;;5067374;28;20460;-68
2021/01/19 06:17:57;;;;;;;29.50;18.10;;;;;;;;;;5062688;28;20451;-68
2021/01/19 06:20:24;;;;;;;31.23;17.17;;;;;;;;;;5066052;28;20499;-68
2021/01/19 06:22:51;;;;;;;26.43;15.53;;;;;;;;;;5065495;28;20445;-70
2021/01/19 06:25:17;;;;;;;27.20;13.80;;;;;;;;;;5059993;28;20968;-68
2021/01/19 06:27:45;;;;;;;32.67;16.73;;;;;;;;;;5061023;28;20541;-68
2021/01/19 06:30:12;;;;;;;30.43;15.40;;;;;;;;;;5070764;28;20464;-69
2021/01/19 06:32:45;;;;;;;32.27;16.50;;;;;;;;;;5065383;28;20468;-69
2021/01/19 06:35:13;;;;;;;34.80;19.50;;;;;;;;;;5067137;28;20437;-69
2021/01/19 06:37:40;;;;;;;30.43;16.70;;;;;;;;;;5066257;28;20528;-68
2021/01/19 06:40:07;;;;;;;32.53;16.20;;;;;;;;;;5061171;28;20504;-68
2021/01/19 06:42:34;;;;;;;21.87;12.73;;;;;;;;;;5067383;28;20453;-69
2021/01/19 06:45:03;;;;;;;26.87;15.47;;;;;;;;;;5065117;28;20980;-69
2021/01/19 06:47:29;;;;;;;27.17;14.63;;;;;;;;;;5066476;28;20484;-68
2021/01/19 06:49:56;;;;;;;30.00;15.73;;;;;;;;;;5066197;28;20537;-68
2021/01/19 06:52:23;;;;;;;30.80;14.80;;;;;;;;;;5065660;28;20437;-68
2021/01/19 06:55:23;;;;;;;29.77;15.57;;;;;;;;;;5068278;28;20510;-68
2021/01/19 06:58:11;;;;;;;22.90;13.20;;;;;;;;;;4989963;28;20953;-68
2021/01/19 07:00:40;;;;;;;27.87;16.33;;;;;;;;;;4974840;28;20477;-68
2021/01/19 07:03:18;;;;;;;29.50;18.33;;;;;;;;;;5038584;28;20444;-68
2021/01/19 07:05:48;;;;;;;24.97;14.80;;;;;;;;;;5064233;28;20449;-68
2021/01/19 07:08:25;;;;;;;23.70;13.60;;;;;;;;;;5066706;28;20477;-68
2021/01/19 07:10:53;;;;;;;33.90;16.40;;;;;;;;;;5062205;28;20488;-69
2021/01/19 07:13:21;;;;;;;23.90;15.07;;;;;;;;;;5063227;28;20438;-69
2021/01/19 07:16:12;;;;;;;23.93;13.60;;;;;;;;;;5064176;28;20449;-68
2021/01/19 07:18:57;;;;;;;27.07;14.50;;;;;;;;;;5061826;28;20450;-68
2021/01/19 07:21:30;;;;;;;22.47;15.03;;;;;;;;;;5055508;28;21231;-68
2021/01/19 07:24:14;;;;;;;23.33;13.30;;;;;;;;;;5069027;28;20461;-69
2021/01/19 07:26:42;;;;;;;21.73;14.13;;;;;;;;;;5067572;28;20490;-69
2021/01/19 07:29:09;;;;;;;20.67;13.30;;;;;;;;;;5064984;28;20837;-68
2021/01/19 07:31:35;;;;;;;25.60;14.23;;;;;;;;;;5067543;28;20487;-70
2021/01/19 07:34:03;;;;;;;24.30;13.93;;;;;;;;;;5064955;28;20934;-69
2021/01/19 07:36:31;;;;;;;26.47;14.67;;;;;;;;;;5063685;28;20454;-69
2021/01/19 07:38:58;;;;;;;21.13;13.33;;;;;;;;;;5069402;28;20877;-69
2021/01/19 07:41:28;;;;;;;21.30;13.67;;;;;;;;;;5065660;28;20483;-69
2021/01/19 07:43:55;;;;;;;21.40;11.57;;;;;;;;;;5070306;28;20945;-68
2021/01/19 07:46:27;;;;;;;21.23;12.87;;;;;;;;;;5061797;28;20456;-68
2021/01/19 07:49:03;;;;;;;21.00;12.33;;;;;;;;;;5062046;28;20481;-68
2021/01/19 07:51:42;;;;;;;20.70;12.20;;;;;;;;;;5062675;28;20477;-68
2021/01/19 07:54:09;;;;;;;18.20;11.23;;;;;;;;;;5067857;28;20546;-68
2021/01/19 07:56:36;;;;;;;21.37;13.17;;;;;;;;;;5064833;28;20454;-69
2021/01/19 07:59:02;;;;;;;23.00;13.70;;;;;;;;;;5063786;28;20449;-69
2021/01/19 08:01:30;;;;;;;25.00;12.40;;;;;;;;;;5063098;28;20552;-69
2021/01/19 08:03:57;;;;;;;25.97;11.70;;;;;;;;;;5061871;28;20463;-69
2021/01/19 08:06:32;;;;;;;17.70;11.67;;;;;;;;;;5070859;28;20471;-69
2021/01/19 08:09:10;;;;;;;18.20;12.20;;;;;;;;;;5069450;28;20548;-68
2021/01/19 08:11:36;;;;;;;19.03;12.67;;;;;;;;;;5057003;28;20836;-68
2021/01/19 08:14:05;;;;;;;19.87;12.73;;;;;;;;;;5065398;28;20456;-69
2021/01/19 08:16:32;;;;;;;19.70;12.93;;;;;;;;;;5060405;28;20454;-69
2021/01/19 08:19:04;;;;;;;17.43;10.70;;;;;;;;;;5059134;28;20807;-68
2021/01/19 08:21:33;;;;;;;17.47;10.77;;;;;;;;;;5062042;28;20472;-68
2021/01/19 08:24:01;;;;;;;22.50;12.17;;;;;;;;;;5061507;28;20457;-68
2021/01/19 08:26:29;;;;;;;19.60;13.43;;;;;;;;;;5055604;28;20441;-69
2021/01/19 08:28:55;;;;;;;20.43;12.97;;;;;;;;;;5057241;28;20484;-69
2021/01/19 08:31:22;;;;;;;22.80;14.23;;;;;;;;;;5069064;28;20471;-69
2021/01/19 08:33:51;;;;;;;19.37;12.43;;;;;;;;;;5062115;28;20444;-69
2021/01/19 08:36:19;;;;;;;23.70;14.17;;;;;;;;;;5062554;28;20956;-68
2021/01/19 08:38:47;;;;;;;19.50;12.17;;;;;;;;;;5068866;28;20441;-68
2021/01/19 08:41:17;;;;;;;19.07;11.07;;;;;;;;;;5063289;28;20897;-67
2021/01/19 08:43:52;;;;;;;21.50;13.10;;;;;;;;;;5064614;28;20803;-69
2021/01/19 08:46:19;;;;;;;21.83;13.60;;;;;;;;;;5064828;28;20503;-69
2021/01/19 08:48:46;;;;;;;19.30;13.20;;;;;;;;;;5063951;28;20483;-69
2021/01/19 08:51:19;;;;;;;28.17;16.17;;;;;;;;;;5066209;28;20471;-68
2021/01/19 08:53:47;;;;;;;20.00;13.40;;;;;;;;;;5068906;28;20493;-69
2021/01/19 08:56:17;;;;;;;27.03;13.70;;;;;;;;;;5060131;28;20462;-69
2021/01/19 08:58:43;;;;;;;18.53;12.30;;;;;;;;;;5057689;28;20498;-69
2021/01/19 09:01:11;;;;;;;18.33;12.93;;;;;;;;;;5066208;28;20472;-68
2021/01/19 09:03:37;;;;;;;16.43;11.63;;;;;;;;;;5060456;28;20457;-69
2021/01/19 09:06:04;;;;;;;23.07;12.90;;;;;;;;;;5057264;28;20463;-68
2021/01/19 09:08:32;;;;;;;21.90;14.10;;;;;;;;;;5067904;28;20488;-69
2021/01/19 09:11:02;;;;;;;26.70;13.37;;;;;;;;;;5063898;28;20484;-68
2021/01/19 09:13:29;;;;;;;21.20;12.13;;;;;;;;;;5069218;28;20457;-68
2021/01/19 09:15:56;;;;;;;20.40;14.37;;;;;;;;;;5064616;28;20458;-69
2021/01/19 09:18:24;;;;;;;19.70;14.10;;;;;;;;;;5067068;28;20486;-68
2021/01/19 09:21:00;;;;;;;21.20;13.97;;;;;;;;;;5062929;28;20968;-69
2021/01/19 09:23:31;;;;;;;17.60;12.70;;;;;;;;;;5064817;28;20447;-69
2021/01/19 09:26:02;;;;;;;26.63;14.23;;;;;;;;;;5068050;28;20469;-70
2021/01/19 09:28:29;;;;;;;22.63;13.60;;;;;;;;;;5056786;28;20561;-69
2021/01/19 09:30:55;;;;;;;17.57;11.97;;;;;;;;;;5064184;28;20509;-69
2021/01/19 09:33:31;;;;;;;20.57;12.83;;;;;;;;;;5056330;28;21211;-69
2021/01/19 09:36:05;;;;;;;17.83;10.63;;;;;;;;;;5064773;28;20994;-69
2021/01/19 09:38:32;;;;;;;22.07;13.87;;;;;;;;;;5069565;28;20436;-69
2021/01/19 09:40:58;;;;;;;14.50;10.40;;;;;;;;;;5067621;28;20491;-69
2021/01/19 09:43:25;;;;;;;22.33;15.37;;;;;;;;;;5062166;28;20461;-69
2021/01/19 09:45:52;;;;;;;18.37;12.80;;;;;;;;;;5067579;28;20460;-69
2021/01/19 09:48:20;;;;;;;14.20;7.97;;;;;;;;;;5062370;28;20511;-69
2021/01/19 09:50:46;;;;;;;16.00;11.93;;;;;;;;;;5071573;28;20473;-69
2021/01/19 09:53:24;;;;;;;18.17;10.97;;;;;;;;;;5067291;28;20445;-69
2021/01/19 09:55:51;;;;;;;17.57;13.07;;;;;;;;;;5071524;28;20460;-68
2021/01/19 09:58:21;;;;;;;17.90;12.30;;;;;;;;;;5062224;28;20430;-69
2021/01/19 10:00:48;;;;;;;20.20;12.93;;;;;;;;;;5068278;28;20468;-69
2021/01/19 10:03:16;;;;;;;14.17;10.73;;;;;;;;;;5072034;28;20453;-69
2021/01/19 10:05:42;;;;;;;18.70;11.53;;;;;;;;;;5069605;28;20440;-68
2021/01/19 10:08:10;;;;;;;16.20;10.37;;;;;;;;;;5062648;28;20928;-68
2021/01/19 10:10:38;;;;;;;16.00;10.40;;;;;;;;;;5069961;28;20486;-69
2021/01/19 10:13:05;;;;;;;16.73;12.50;;;;;;;;;;5068707;28;20446;-68
2021/01/19 10:15:31;;;;;;;18.60;11.10;;;;;;;;;;5064835;28;20437;-69
2021/01/19 10:17:58;;;;;;;17.00;11.33;;;;;;;;;;5067949;28;20459;-68
2021/01/19 10:20:31;;;;;;;15.27;12.70;;;;;;;;;;5066269;28;20462;-69
2021/01/19 10:22:58;;;;;;;16.53;11.63;;;;;;;;;;5072750;28;20448;-69
2021/01/19 10:25:28;;;;;;;16.63;10.50;;;;;;;;;;5065399;28;20470;-69
2021/01/19 10:27:57;;;;;;;19.27;11.23;;;;;;;;;;5064447;28;20506;-69
2021/01/19 10:30:28;;;;;;;20.20;12.03;;;;;;;;;;5062087;28;21008;-69
2021/01/19 10:32:54;;;;;;;17.13;10.57;;;;;;;;;;5062144;28;20441;-69
2021/01/19 10:35:25;;;;;;;15.93;11.07;;;;;;;;;;5063647;28;20457;-70
2021/01/19 10:37:53;;;;;;;15.13;10.70;;;;;;;;;;5068058;28;20507;-68
2021/01/19 10:40:19;;;;;;;15.13;10.23;;;;;;;;;;5058056;28;20474;-69
2021/01/19 10:42:46;;;;;;;16.03;10.93;;;;;;;;;;5065720;28;20932;-69
2021/01/19 10:45:22;;;;;;;15.70;11.23;;;;;;;;;;5067746;28;20442;-68
2021/01/19 10:47:49;;;;;;;15.70;10.10;;;;;;;;;;5063679;28;20480;-69
2021/01/19 10:50:16;;;;;;;16.87;12.10;;;;;;;;;;5065763;28;20472;-69
2021/01/19 10:52:43;;;;;;;18.43;11.73;;;;;;;;;;5068310;28;21051;-69
2021/01/19 10:55:10;;;;;;;15.40;11.40;;;;;;;;;;5068243;28;20452;-69
2021/01/19 10:57:37;;;;;;;17.80;9.67;;;;;;;;;;5062515;28;20460;-70
2021/01/19 11:00:06;;;;;;;13.70;8.67;;;;;;;;;;5062556;28;20468;-69
2021/01/19 11:02:33;;;;;;;17.43;12.00;;;;;;;;;;5061449;28;20937;-69
2021/01/19 11:05:00;;;;;;;13.63;10.30;;;;;;;;;;5066912;28;20460;-68
2021/01/19 11:07:26;;;;;;;14.97;11.23;;;;;;;;;;5067641;28;20459;-69
2021/01/19 11:09:53;;;;;;;12.13;8.57;;;;;;;;;;5064059;28;20877;-68
2021/01/19 11:12:20;;;;;;;9.53;7.20;;;;;;;;;;5060688;28;20461;-69
2021/01/19 11:14:47;;;;;;;13.37;8.33;;;;;;;;;;5064134;28;20444;-69
2021/01/19 11:17:13;;;;;;;15.67;11.17;;;;;;;;;;5066349;28;20941;-69
2021/01/19 11:19:41;;;;;;;15.23;10.27;;;;;;;;;;5067940;28;20461;-69
2021/01/19 11:22:08;;;;;;;12.70;9.47;;;;;;;;;;5068003;28;20437;-68
2021/01/19 11:24:35;;;;;;;10.67;7.97;;;;;;;;;;5068407;28;20449;-68
2021/01/19 11:27:02;;;;;;;12.47;7.87;;;;;;;;;;5067591;28;20457;-68
2021/01/19 11:29:28;;;;;;;13.40;10.50;;;;;;;;;;5063403;28;20579;-68
2021/01/19 11:31:55;;;;;;;13.30;10.37;;;;;;;;;;5066503;28;20456;-69
2021/01/19 11:34:22;;;;;;;13.90;10.50;;;;;;;;;;5059319;28;20465;-69
2021/01/19 11:36:49;;;;;;;14.23;9.07;;;;;;;;;;5067584;28;20471;-69
2021/01/19 11:39:16;;;;;;;12.47;10.07;;;;;;;;;;5065494;28;20904;-68
2021/01/19 11:41:42;;;;;;;13.27;8.60;;;;;;;;;;5065416;28;20890;-67
2021/01/19 11:44:10;;;;;;;17.57;10.50;;;;;;;;;;5064993;28;20491;-68
2021/01/19 11:46:38;;;;;;;14.77;10.97;;;;;;;;;;5067967;28;20466;-68
2021/01/19 11:49:06;;;;;;;14.83;10.20;;;;;;;;;;5068008;28;20484;-69
2021/01/19 11:51:33;;;;;;;13.37;10.67;;;;;;;;;;5065069;28;21023;-69
2021/01/19 11:54:02;;;;;;;14.63;10.60;;;;;;;;;;5064992;28;20506;-68
2021/01/19 11:56:33;;;;;;;13.97;10.30;;;;;;;;;;5064566;28;20449;-69
2021/01/19 11:58:59;;;;;;;12.80;8.83;;;;;;;;;;5065913;28;20442;-69
2021/01/19 12:01:26;;;;;;;16.07;10.20;;;;;;;;;;5067306;28;20559;-69
2021/01/19 12:03:53;;;;;;;18.43;9.97;;;;;;;;;;5063287;28;20450;-68
2021/01/19 12:06:19;;;;;;;15.30;9.83;;;;;;;;;;5067177;28;20449;-68
2021/01/19 12:08:46;;;;;;;16.03;10.20;;;;;;;;;;5067009;28;20489;-68
2021/01/19 12:11:14;;;;;;;10.57;8.23;;;;;;;;;;5066991;28;21068;-68
2021/01/19 12:13:41;;;;;;;12.90;8.60;;;;;;;;;;5060122;28;20457;-68
2021/01/19 12:16:07;;;;;;;15.70;8.90;;;;;;;;;;5066506;28;20452;-68
2021/01/19 12:18:34;;;;;;;14.50;9.40;;;;;;;;;;5063640;28;20888;-69
2021/01/19 12:21:01;;;;;;;14.93;9.87;;;;;;;;;;5065057;28;20465;-68
2021/01/19 12:23:28;;;;;;;13.70;6.97;;;;;;;;;;5056332;28;20804;-67
2021/01/19 12:25:56;;;;;;;10.37;8.07;;;;;;;;;;5059180;28;20469;-69
2021/01/19 12:28:23;;;;;;;14.30;8.90;;;;;;;;;;5064018;28;20473;-68
2021/01/19 12:30:50;;;;;;;14.40;9.40;;;;;;;;;;5065512;28;20465;-69
2021/01/19 12:33:17;;;;;;;14.80;7.60;;;;;;;;;;5068570;28;20463;-68
2021/01/19 12:35:44;;;;;;;11.73;7.63;;;;;;;;;;5065597;28;20457;-69
2021/01/19 12:38:10;;;;;;;11.27;9.00;;;;;;;;;;5068626;28;20441;-68
2021/01/19 12:40:37;;;;;;;10.90;8.07;;;;;;;;;;5061795;28;21258;-69
2021/01/19 12:43:04;;;;;;;10.03;8.00;;;;;;;;;;5068640;28;20449;-69
2021/01/19 12:45:31;;;;;;;7.23;6.50;;;;;;;;;;5065496;28;20445;-69
2021/01/19 12:47:58;;;;;;;9.23;7.57;;;;;;;;;;5062610;28;21113;-68
2021/01/19 12:50:24;;;;;;;12.77;9.20;;;;;;;;;;5058762;28;20473;-68
2021/01/19 12:52:51;;;;;;;11.87;8.53;;;;;;;;;;5060234;28;21176;-69
2021/01/19 12:55:17;;;;;;;13.50;9.43;;;;;;;;;;5062314;28;20464;-68
2021/01/19 12:57:44;;;;;;;13.87;8.00;;;;;;;;;;5060452;28;20467;-68
2021/01/19 13:00:11;;;;;;;14.07;9.67;;;;;;;;;;5061535;28;20892;-69
2021/01/19 13:02:39;;;;;;;11.87;8.70;;;;;;;;;;5068159;28;20449;-67
2021/01/19 13:05:07;;;;;;;13.37;8.80;;;;;;;;;;5061986;28;20454;-69
2021/01/19 13:07:34;;;;;;;10.50;8.77;;;;;;;;;;5066346;28;20453;-69
2021/01/19 13:10:00;;;;;;;11.67;8.53;;;;;;;;;;5058322;28;20485;-66
2021/01/19 13:12:27;;;;;;;11.43;8.10;;;;;;;;;;5058622;28;20445;-68
2021/01/19 13:14:54;;;;;;;13.00;9.40;;;;;;;;;;5062454;28;20448;-68
2021/01/19 13:17:20;;;;;;;13.97;8.70;;;;;;;;;;5066822;28;20456;-68
2021/01/19 13:19:48;;;;;;;13.77;10.00;;;;;;;;;;5058659;28;20465;-67
2021/01/19 13:22:14;;;;;;;11.80;8.60;;;;;;;;;;5066613;28;20502;-68
2021/01/19 13:24:41;;;;;;;12.43;8.50;;;;;;;;;;5065820;28;20987;-68
2021/01/19 13:27:07;;;;;;;12.13;8.60;;;;;;;;;;5068221;28;20914;-68
2021/01/19 13:29:34;;;;;;;13.13;8.93;;;;;;;;;;5067611;28;20488;-68
2021/01/19 13:32:01;;;;;;;12.90;9.27;;;;;;;;;;5066244;28;20456;-67
2021/01/19 13:34:28;;;;;;;11.73;8.67;;;;;;;;;;5062752;28;20453;-68
2021/01/19 13:36:55;;;;;;;10.87;8.80;;;;;;;;;;5058922;28;20445;-68
2021/01/19 13:39:22;;;;;;;12.40;7.07;;;;;;;;;;5061046;28;20456;-68
2021/01/19 13:41:52;;;;;;;9.77;8.13;;;;;;;;;;5063206;28;21045;-68
2021/01/19 13:44:18;;;;;;;12.37;8.47;;;;;;;;;;5065097;28;20445;-68
2021/01/19 13:46:45;;;;;;;9.97;8.00;;;;;;;;;;5061482;28;20831;-68
2021/01/19 13:49:12;;;;;;;10.13;7.53;;;;;;;;;;5065030;28;20492;-69
2021/01/19 13:51:38;;;;;;;13.10;7.80;;;;;;;;;;5062801;28;20475;-68
2021/01/19 13:54:06;;;;;;;10.70;6.80;;;;;;;;;;5061059;28;22041;-68
2021/01/19 13:56:32;;;;;;;12.37;8.83;;;;;;;;;;5067228;28;20660;-69
2021/01/19 13:58:59;;;;;;;12.47;8.33;;;;;;;;;;5066277;28;20442;-68
2021/01/19 14:01:26;;;;;;;14.50;9.33;;;;;;;;;;5065592;28;20475;-67
2021/01/19 14:03:52;;;;;;;10.77;7.50;;;;;;;;;;5064688;28;20453;-68
2021/01/19 14:06:19;;;;;;;9.30;7.90;;;;;;;;;;5061316;28;21022;-69
2021/01/19 14:08:45;;;;;;;10.20;7.80;;;;;;;;;;5062076;28;20480;-68
2021/01/19 14:11:13;;;;;;;11.03;8.07;;;;;;;;;;5062726;28;20473;-68
2021/01/19 14:13:39;;;;;;;9.60;6.93;;;;;;;;;;5057499;28;20453;-69
2021/01/19 14:16:06;;;;;;;10.07;7.97;;;;;;;;;;5059072;28;20468;-68
2021/01/19 14:18:33;;;;;;;10.57;6.97;;;;;;;;;;5063761;28;20449;-69
2021/01/19 14:20:59;;;;;;;10.30;8.93;;;;;;;;;;5057096;28;20494;-68
2021/01/19 14:23:26;;;;;;;13.07;7.73;;;;;;;;;;5067977;28;20451;-68
2021/01/19 14:25:53;;;;;;;8.70;6.57;;;;;;;;;;5065195;28;20980;-68
2021/01/19 14:28:20;;;;;;;9.53;6.67;;;;;;;;;;5062891;28;20482;-68